Terminal Aerodrome Forecast
Issued by NWS

Home | Current Version | Previous Version | Text Only | Print | Product List | Glossary On
Versions: 1 2 3 4 5 6 7 8 9 10 11 12 13 14
925
FTUS45 KGGW 221727 AAA
TAFSDY
TAF AMD
KSDY 221727Z 2217/2318 27010KT P6SM OVC015
     FM230200 26006KT P6SM SCT009 BKN015
     FM230300 25005KT P6SM SCT010
     FM230700 26004KT P6SM BKN007=

USA.gov is the U.S. government's official web portal to all federal, state and local government web resources and services.